createdAt,value
2017-11-13T00:09:45.232Z,32.8
2017-11-13T00:19:59.861Z,33
2017-11-13T00:30:14.168Z,32.7
2017-11-13T00:40:27.966Z,32.5
2017-11-13T00:50:42.669Z,32.3
2017-11-13T01:00:56.553Z,32.5
2017-11-13T01:11:11.195Z,32.3
2017-11-13T01:21:25.014Z,32.1
2017-11-13T01:31:38.860Z,32.3
2017-11-13T01:41:52.690Z,32.4
2017-11-13T01:52:07.067Z,32
2017-11-13T02:02:21.262Z,32.3
2017-11-13T02:12:35.529Z,32.4
2017-11-13T02:22:50.051Z,32.2
2017-11-13T02:33:03.738Z,32.6
2017-11-13T02:43:17.481Z,32.9
2017-11-13T02:53:32.163Z,32.6
2017-11-13T13:08:18.184Z,100
2017-11-13T13:18:33.315Z,100
2017-11-13T13:28:49.314Z,100
2017-11-13T13:39:05.397Z,100
2017-11-13T13:49:20.238Z,100
2017-11-13T13:59:35.920Z,100
2017-11-13T14:09:50.856Z,100
2017-11-13T14:20:06.337Z,100
2017-11-13T14:30:22.085Z,100
2017-11-13T14:41:14.748Z,100
2017-11-13T14:50:53.102Z,100
2017-11-13T15:01:07.665Z,96.4
2017-11-13T15:11:22.810Z,92.1
2017-11-13T15:21:37.441Z,85.1
2017-11-13T15:31:52.208Z,76.3
2017-11-13T15:42:08.150Z,71.5
2017-11-13T15:52:23.491Z,61.3
2017-11-13T16:02:38.652Z,52.8
2017-11-13T16:12:54.841Z,50.2
2017-11-13T16:23:09.250Z,54.7
2017-11-13T16:33:25.471Z,53.1
2017-11-13T16:43:41.585Z,56.1
2017-11-13T16:53:56.998Z,54.5
2017-11-13T17:04:12.257Z,55.5
2017-11-13T17:14:27.583Z,52.8
2017-11-13T17:24:43.103Z,50.5
2017-11-13T17:34:57.631Z,48.5
2017-11-13T17:45:13.147Z,47.7
2017-11-13T17:55:28.258Z,51.4
2017-11-13T18:05:44.262Z,55.6
2017-11-13T18:16:00.175Z,58.7
2017-11-13T18:26:15.267Z,59.9
2017-11-13T18:36:29.615Z,52.6
2017-11-13T18:46:44.776Z,49.8
2017-11-13T18:57:00.842Z,48.7
2017-11-13T19:07:16.119Z,56.3
2017-11-13T19:17:31.884Z,57.3
2017-11-13T19:27:47.095Z,56.2
2017-11-13T19:38:02.247Z,48.5
2017-11-13T19:48:17.325Z,44.4
2017-11-13T19:58:33.089Z,41.3
2017-11-13T20:08:48.003Z,39.5
2017-11-13T20:19:02.542Z,37.6
2017-11-13T20:29:17.251Z,36.7
2017-11-13T20:39:31.607Z,36.2
2017-11-13T20:49:47.078Z,35.2
2017-11-13T21:00:03.010Z,34.9
2017-11-13T21:10:17.464Z,34.1
2017-11-13T21:20:32.160Z,33.8
2017-11-13T21:30:46.771Z,33.5
2017-11-13T21:41:01.353Z,33.3
2017-11-13T21:51:16.687Z,33
2017-11-13T22:01:31.233Z,32.5
2017-11-13T22:11:46.231Z,32.6
2017-11-13T22:22:02.523Z,32.4
2017-11-13T22:32:16.875Z,31.9
2017-11-13T22:42:31.417Z,32
2017-11-13T22:52:47.336Z,31.5
2017-11-13T23:03:02.955Z,32.5
2017-11-13T23:13:18.336Z,32.1
2017-11-13T23:23:33.430Z,32.1
2017-11-13T23:33:48.582Z,32.1
2017-11-13T23:44:04.155Z,32.1
2017-11-13T23:54:19.497Z,32.1
